Terminal Aerodrome Forecast
Issued by NWS

Current Version | Previous Version | Text Only | Print | Product List | Glossary On
Versions: 1 2 3 4 5 6 7 8 9 10 11 12 13 14 15 16 17 18 19 20 21 22 23
000
FTUS46 KLOX 291731
TAFVNY
TAF
KVNY 291731Z 2918/3018 VRB05KT 4SM HZ SKC
     FM292200 15009KT P6SM SKC
     FM300300 13004KT P6SM SKC
     FM301200 VRB03KT 5SM HZ SKC=

USA.gov is the U.S. government's official web portal to all federal, state and local government web resources and services.